sensor_id;sensor_type;location;lat;lon;timestamp;P1;durP1;ratioP1;P2;durP2;ratioP2
19842;SDS011;10082;51.038;6.992;2023-12-20T00:01:02;15.93;;;13.90;;
19842;SDS011;10082;51.038;6.992;2023-12-20T00:03:29;16.38;;;14.60;;
19842;SDS011;10082;51.038;6.992;2023-12-20T00:09:18;15.82;;;14.13;;
19842;SDS011;10082;51.038;6.992;2023-12-20T00:11:45;18.15;;;14.82;;
19842;SDS011;10082;51.038;6.992;2023-12-20T00:14:14;17.25;;;15.07;;
19842;SDS011;10082;51.038;6.992;2023-12-20T00:16:41;17.75;;;15.20;;
19842;SDS011;10082;51.038;6.992;2023-12-20T00:19:08;19.73;;;15.95;;
19842;SDS011;10082;51.038;6.992;2023-12-20T00:21:34;17.05;;;14.50;;
19842;SDS011;10082;51.038;6.992;2023-12-20T00:24:01;19.85;;;15.48;;
19842;SDS011;10082;51.038;6.992;2023-12-20T00:26:29;17.73;;;14.35;;
19842;SDS011;10082;51.038;6.992;2023-12-20T00:28:55;16.65;;;13.80;;
19842;SDS011;10082;51.038;6.992;2023-12-20T00:31:24;12.35;;;10.45;;
19842;SDS011;10082;51.038;6.992;2023-12-20T00:33:51;9.05;;;7.65;;
19842;SDS011;10082;51.038;6.992;2023-12-20T00:36:18;8.27;;;6.68;;
19842;SDS011;10082;51.038;6.992;2023-12-20T00:38:45;6.68;;;6.00;;
19842;SDS011;10082;51.038;6.992;2023-12-20T00:41:12;7.30;;;5.78;;
19842;SDS011;10082;51.038;6.992;2023-12-20T00:43:39;6.53;;;5.68;;
19842;SDS011;10082;51.038;6.992;2023-12-20T00:46:06;6.35;;;5.00;;
19842;SDS011;10082;51.038;6.992;2023-12-20T00:48:34;6.70;;;5.60;;
19842;SDS011;10082;51.038;6.992;2023-12-20T00:51:01;4.97;;;4.22;;
19842;SDS011;10082;51.038;6.992;2023-12-20T00:53:29;8.02;;;4.05;;
19842;SDS011;10082;51.038;6.992;2023-12-20T00:55:56;4.65;;;4.25;;
19842;SDS011;10082;51.038;6.992;2023-12-20T00:58:24;4.70;;;3.55;;
19842;SDS011;10082;51.038;6.992;2023-12-20T01:00:51;3.92;;;3.63;;
19842;SDS011;10082;51.038;6.992;2023-12-20T01:03:19;6.07;;;4.75;;
19842;SDS011;10082;51.038;6.992;2023-12-20T01:05:46;7.97;;;4.85;;
19842;SDS011;10082;51.038;6.992;2023-12-20T01:08:13;7.38;;;4.75;;
19842;SDS011;10082;51.038;6.992;2023-12-20T01:10:43;6.55;;;4.97;;
19842;SDS011;10082;51.038;6.992;2023-12-20T01:13:12;7.63;;;5.47;;
19842;SDS011;10082;51.038;6.992;2023-12-20T01:15:39;7.57;;;6.10;;
19842;SDS011;10082;51.038;6.992;2023-12-20T01:18:06;7.40;;;6.22;;
19842;SDS011;10082;51.038;6.992;2023-12-20T01:20:32;9.35;;;7.75;;
19842;SDS011;10082;51.038;6.992;2023-12-20T01:23:01;10.35;;;7.50;;
19842;SDS011;10082;51.038;6.992;2023-12-20T01:25:28;10.02;;;7.28;;
19842;SDS011;10082;51.038;6.992;2023-12-20T01:27:55;10.07;;;7.45;;
19842;SDS011;10082;51.038;6.992;2023-12-20T01:30:21;11.57;;;8.15;;
19842;SDS011;10082;51.038;6.992;2023-12-20T01:32:49;11.88;;;8.18;;
19842;SDS011;10082;51.038;6.992;2023-12-20T01:35:16;11.00;;;9.38;;
19842;SDS011;10082;51.038;6.992;2023-12-20T01:37:43;13.68;;;10.20;;
19842;SDS011;10082;51.038;6.992;2023-12-20T01:43:38;12.82;;;10.15;;
19842;SDS011;10082;51.038;6.992;2023-12-20T01:46:05;12.77;;;10.05;;
19842;SDS011;10082;51.038;6.992;2023-12-20T01:48:32;13.48;;;9.88;;
19842;SDS011;10082;51.038;6.992;2023-12-20T01:50:59;10.52;;;9.13;;
19842;SDS011;10082;51.038;6.992;2023-12-20T01:53:27;11.38;;;9.85;;
19842;SDS011;10082;51.038;6.992;2023-12-20T01:55:55;12.90;;;9.05;;
19842;SDS011;10082;51.038;6.992;2023-12-20T01:58:24;11.50;;;8.68;;
19842;SDS011;10082;51.038;6.992;2023-12-20T02:00:54;10.25;;;9.18;;
19842;SDS011;10082;51.038;6.992;2023-12-20T02:03:21;11.77;;;8.55;;
19842;SDS011;10082;51.038;6.992;2023-12-20T02:05:49;11.25;;;8.88;;
19842;SDS011;10082;51.038;6.992;2023-12-20T02:08:17;10.60;;;9.05;;
19842;SDS011;10082;51.038;6.992;2023-12-20T02:10:45;10.18;;;8.45;;
19842;SDS011;10082;51.038;6.992;2023-12-20T02:13:13;12.30;;;7.85;;
19842;SDS011;10082;51.038;6.992;2023-12-20T02:15:40;11.63;;;8.32;;
19842;SDS011;10082;51.038;6.992;2023-12-20T02:18:10;10.23;;;7.65;;
19842;SDS011;10082;51.038;6.992;2023-12-20T02:20:40;8.45;;;7.57;;
19842;SDS011;10082;51.038;6.992;2023-12-20T02:23:09;10.68;;;7.68;;
19842;SDS011;10082;51.038;6.992;2023-12-20T02:25:36;10.23;;;7.57;;
19842;SDS011;10082;51.038;6.992;2023-12-20T02:28:03;9.05;;;7.63;;
19842;SDS011;10082;51.038;6.992;2023-12-20T02:30:31;10.13;;;7.38;;
19842;SDS011;10082;51.038;6.992;2023-12-20T02:32:59;10.50;;;7.32;;
19842;SDS011;10082;51.038;6.992;2023-12-20T02:35:27;10.65;;;7.03;;
19842;SDS011;10082;51.038;6.992;2023-12-20T02:37:54;9.00;;;6.43;;
19842;SDS011;10082;51.038;6.992;2023-12-20T02:40:22;7.60;;;6.30;;
19842;SDS011;10082;51.038;6.992;2023-12-20T02:42:49;12.23;;;6.53;;
19842;SDS011;10082;51.038;6.992;2023-12-20T02:45:16;10.45;;;5.93;;
19842;SDS011;10082;51.038;6.992;2023-12-20T02:47:43;8.45;;;5.47;;
19842;SDS011;10082;51.038;6.992;2023-12-20T02:50:10;8.57;;;5.30;;
19842;SDS011;10082;51.038;6.992;2023-12-20T02:52:37;10.63;;;5.68;;
19842;SDS011;10082;51.038;6.992;2023-12-20T02:55:04;8.10;;;5.25;;
19842;SDS011;10082;51.038;6.992;2023-12-20T02:57:33;9.57;;;5.68;;
19842;SDS011;10082;51.038;6.992;2023-12-20T03:00:01;12.57;;;5.30;;
19842;SDS011;10082;51.038;6.992;2023-12-20T03:02:29;10.27;;;5.30;;
19842;SDS011;10082;51.038;6.992;2023-12-20T03:04:55;12.02;;;5.22;;
19842;SDS011;10082;51.038;6.992;2023-12-20T03:07:25;7.95;;;4.45;;
19842;SDS011;10082;51.038;6.992;2023-12-20T03:09:52;13.25;;;4.97;;
19842;SDS011;10082;51.038;6.992;2023-12-20T03:12:19;9.07;;;4.13;;
19842;SDS011;10082;51.038;6.992;2023-12-20T03:14:47;10.65;;;4.05;;
19842;SDS011;10082;51.038;6.992;2023-12-20T03:17:14;12.25;;;4.22;;
19842;SDS011;10082;51.038;6.992;2023-12-20T03:19:41;9.52;;;3.38;;
19842;SDS011;10082;51.038;6.992;2023-12-20T03:22:08;5.97;;;3.20;;
19842;SDS011;10082;51.038;6.992;2023-12-20T03:24:35;6.65;;;2.95;;
19842;SDS011;10082;51.038;6.992;2023-12-20T03:27:02;8.02;;;2.80;;
19842;SDS011;10082;51.038;6.992;2023-12-20T03:29:30;5.82;;;2.65;;
19842;SDS011;10082;51.038;6.992;2023-12-20T03:31:58;9.82;;;2.88;;
19842;SDS011;10082;51.038;6.992;2023-12-20T03:34:26;9.50;;;2.95;;
19842;SDS011;10082;51.038;6.992;2023-12-20T03:36:54;10.30;;;3.10;;
19842;SDS011;10082;51.038;6.992;2023-12-20T03:39:21;7.43;;;2.60;;
19842;SDS011;10082;51.038;6.992;2023-12-20T03:41:48;9.40;;;3.03;;
19842;SDS011;10082;51.038;6.992;2023-12-20T03:44:15;7.07;;;2.90;;
19842;SDS011;10082;51.038;6.992;2023-12-20T03:46:42;5.85;;;2.65;;
19842;SDS011;10082;51.038;6.992;2023-12-20T03:49:12;13.50;;;3.53;;
19842;SDS011;10082;51.038;6.992;2023-12-20T03:51:39;8.05;;;3.42;;
19842;SDS011;10082;51.038;6.992;2023-12-20T03:54:07;11.00;;;3.65;;
19842;SDS011;10082;51.038;6.992;2023-12-20T03:56:37;9.45;;;3.30;;
19842;SDS011;10082;51.038;6.992;2023-12-20T03:59:04;7.53;;;3.17;;
19842;SDS011;10082;51.038;6.992;2023-12-20T04:01:31;10.10;;;3.35;;
19842;SDS011;10082;51.038;6.992;2023-12-20T04:03:58;11.20;;;3.83;;
19842;SDS011;10082;51.038;6.992;2023-12-20T04:06:27;8.68;;;3.58;;
19842;SDS011;10082;51.038;6.992;2023-12-20T04:08:54;7.63;;;3.40;;
19842;SDS011;10082;51.038;6.992;2023-12-20T04:11:21;10.82;;;3.28;;
19842;SDS011;10082;51.038;6.992;2023-12-20T04:13:48;9.23;;;3.40;;
19842;SDS011;10082;51.038;6.992;2023-12-20T04:16:15;9.90;;;3.33;;
19842;SDS011;10082;51.038;6.992;2023-12-20T04:18:42;7.93;;;3.22;;
19842;SDS011;10082;51.038;6.992;2023-12-20T04:21:08;9.63;;;3.60;;
19842;SDS011;10082;51.038;6.992;2023-12-20T04:23:37;10.93;;;3.50;;
19842;SDS011;10082;51.038;6.992;2023-12-20T04:26:04;15.30;;;3.65;;
19842;SDS011;10082;51.038;6.992;2023-12-20T04:28:31;9.50;;;3.25;;
19842;SDS011;10082;51.038;6.992;2023-12-20T04:33:43;10.63;;;3.33;;
19842;SDS011;10082;51.038;6.992;2023-12-20T04:36:10;10.95;;;3.28;;
19842;SDS011;10082;51.038;6.992;2023-12-20T04:38:39;10.20;;;3.60;;
19842;SDS011;10082;51.038;6.992;2023-12-20T04:41:06;10.18;;;3.17;;
19842;SDS011;10082;51.038;6.992;2023-12-20T04:43:33;10.40;;;3.85;;
19842;SDS011;10082;51.038;6.992;2023-12-20T04:46:00;10.20;;;3.92;;
19842;SDS011;10082;51.038;6.992;2023-12-20T04:48:27;10.13;;;3.80;;
19842;SDS011;10082;51.038;6.992;2023-12-20T04:50:54;12.73;;;4.18;;
19842;SDS011;10082;51.038;6.992;2023-12-20T04:53:21;8.45;;;3.92;;
19842;SDS011;10082;51.038;6.992;2023-12-20T04:55:50;10.07;;;4.20;;
19842;SDS011;10082;51.038;6.992;2023-12-20T04:58:16;9.68;;;4.28;;
19842;SDS011;10082;51.038;6.992;2023-12-20T05:00:43;10.80;;;4.45;;
19842;SDS011;10082;51.038;6.992;2023-12-20T05:03:11;8.05;;;3.80;;
19842;SDS011;10082;51.038;6.992;2023-12-20T05:05:38;9.73;;;4.00;;
19842;SDS011;10082;51.038;6.992;2023-12-20T05:08:05;9.48;;;4.18;;
19842;SDS011;10082;51.038;6.992;2023-12-20T05:10:33;12.52;;;4.05;;
19842;SDS011;10082;51.038;6.992;2023-12-20T05:13:06;9.45;;;4.57;;
19842;SDS011;10082;51.038;6.992;2023-12-20T05:15:33;10.40;;;4.00;;
19842;SDS011;10082;51.038;6.992;2023-12-20T05:18:00;8.73;;;4.10;;
19842;SDS011;10082;51.038;6.992;2023-12-20T05:20:27;8.13;;;4.03;;
19842;SDS011;10082;51.038;6.992;2023-12-20T05:22:54;11.35;;;4.32;;
19842;SDS011;10082;51.038;6.992;2023-12-20T05:25:21;9.05;;;4.18;;
19842;SDS011;10082;51.038;6.992;2023-12-20T05:27:48;9.18;;;4.32;;
19842;SDS011;10082;51.038;6.992;2023-12-20T05:30:17;12.10;;;4.20;;
19842;SDS011;10082;51.038;6.992;2023-12-20T05:32:44;11.65;;;4.15;;
19842;SDS011;10082;51.038;6.992;2023-12-20T05:35:11;11.35;;;4.07;;
19842;SDS011;10082;51.038;6.992;2023-12-20T05:37:38;11.65;;;4.13;;
19842;SDS011;10082;51.038;6.992;2023-12-20T05:40:06;10.40;;;4.38;;
19842;SDS011;10082;51.038;6.992;2023-12-20T05:42:35;10.27;;;4.30;;
19842;SDS011;10082;51.038;6.992;2023-12-20T05:45:03;11.38;;;4.55;;
19842;SDS011;10082;51.038;6.992;2023-12-20T05:47:32;11.32;;;4.72;;
19842;SDS011;10082;51.038;6.992;2023-12-20T05:49:59;13.50;;;4.57;;
19842;SDS011;10082;51.038;6.992;2023-12-20T05:52:27;9.50;;;4.18;;
19842;SDS011;10082;51.038;6.992;2023-12-20T05:54:54;8.25;;;4.30;;
19842;SDS011;10082;51.038;6.992;2023-12-20T05:57:23;8.70;;;4.30;;
19842;SDS011;10082;51.038;6.992;2023-12-20T05:59:50;12.07;;;4.65;;
19842;SDS011;10082;51.038;6.992;2023-12-20T06:02:17;11.35;;;3.92;;
19842;SDS011;10082;51.038;6.992;2023-12-20T06:04:45;11.10;;;3.80;;
19842;SDS011;10082;51.038;6.992;2023-12-20T06:07:12;11.88;;;4.00;;
19842;SDS011;10082;51.038;6.992;2023-12-20T06:09:40;7.68;;;4.00;;
19842;SDS011;10082;51.038;6.992;2023-12-20T06:12:10;7.90;;;3.87;;
19842;SDS011;10082;51.038;6.992;2023-12-20T06:14:37;12.75;;;4.22;;
19842;SDS011;10082;51.038;6.992;2023-12-20T06:17:04;9.77;;;3.80;;
19842;SDS011;10082;51.038;6.992;2023-12-20T06:19:31;10.27;;;4.28;;
19842;SDS011;10082;51.038;6.992;2023-12-20T06:21:59;10.90;;;3.47;;
19842;SDS011;10082;51.038;6.992;2023-12-20T06:24:26;9.27;;;3.55;;
19842;SDS011;10082;51.038;6.992;2023-12-20T06:26:53;10.43;;;4.35;;
19842;SDS011;10082;51.038;6.992;2023-12-20T06:29:21;8.60;;;3.53;;
19842;SDS011;10082;51.038;6.992;2023-12-20T06:31:47;9.32;;;3.97;;
19842;SDS011;10082;51.038;6.992;2023-12-20T06:34:14;9.10;;;3.65;;
19842;SDS011;10082;51.038;6.992;2023-12-20T06:36:42;12.73;;;4.25;;
19842;SDS011;10082;51.038;6.992;2023-12-20T06:39:10;7.05;;;3.67;;
19842;SDS011;10082;51.038;6.992;2023-12-20T06:41:39;12.40;;;3.75;;
19842;SDS011;10082;51.038;6.992;2023-12-20T06:44:06;12.32;;;3.90;;
19842;SDS011;10082;51.038;6.992;2023-12-20T06:46:33;9.52;;;3.80;;
19842;SDS011;10082;51.038;6.992;2023-12-20T06:49:00;9.43;;;3.80;;
19842;SDS011;10082;51.038;6.992;2023-12-20T06:51:27;10.73;;;3.63;;
19842;SDS011;10082;51.038;6.992;2023-12-20T06:53:56;8.82;;;3.35;;
19842;SDS011;10082;51.038;6.992;2023-12-20T06:56:25;7.70;;;2.85;;
19842;SDS011;10082;51.038;6.992;2023-12-20T06:58:53;9.10;;;3.50;;
19842;SDS011;10082;51.038;6.992;2023-12-20T07:01:20;11.32;;;3.90;;
19842;SDS011;10082;51.038;6.992;2023-12-20T07:03:47;11.90;;;3.85;;
19842;SDS011;10082;51.038;6.992;2023-12-20T07:06:14;7.10;;;2.90;;
19842;SDS011;10082;51.038;6.992;2023-12-20T07:08:42;10.15;;;3.75;;
19842;SDS011;10082;51.038;6.992;2023-12-20T07:11:09;10.48;;;3.35;;
19842;SDS011;10082;51.038;6.992;2023-12-20T07:13:38;11.65;;;3.95;;
19842;SDS011;10082;51.038;6.992;2023-12-20T07:16:05;10.40;;;3.15;;
19842;SDS011;10082;51.038;6.992;2023-12-20T07:18:32;7.60;;;3.10;;
19842;SDS011;10082;51.038;6.992;2023-12-20T07:21:00;6.97;;;3.30;;
19842;SDS011;10082;51.038;6.992;2023-12-20T07:23:28;8.15;;;3.45;;
19842;SDS011;10082;51.038;6.992;2023-12-20T07:25:55;9.18;;;3.17;;
19842;SDS011;10082;51.038;6.992;2023-12-20T07:28:22;8.73;;;3.50;;
19842;SDS011;10082;51.038;6.992;2023-12-20T07:30:51;13.43;;;3.95;;
19842;SDS011;10082;51.038;6.992;2023-12-20T07:33:18;13.55;;;4.13;;
19842;SDS011;10082;51.038;6.992;2023-12-20T07:35:45;10.80;;;3.80;;
19842;SDS011;10082;51.038;6.992;2023-12-20T07:38:12;8.98;;;3.55;;
19842;SDS011;10082;51.038;6.992;2023-12-20T07:40:39;9.02;;;3.97;;
19842;SDS011;10082;51.038;6.992;2023-12-20T07:43:06;9.68;;;3.50;;
19842;SDS011;10082;51.038;6.992;2023-12-20T07:45:33;10.93;;;4.10;;
19842;SDS011;10082;51.038;6.992;2023-12-20T07:48:02;10.43;;;3.75;;
19842;SDS011;10082;51.038;6.992;2023-12-20T07:50:30;10.63;;;3.80;;
19842;SDS011;10082;51.038;6.992;2023-12-20T07:52:57;9.35;;;4.03;;
19842;SDS011;10082;51.038;6.992;2023-12-20T07:55:24;12.10;;;4.00;;
19842;SDS011;10082;51.038;6.992;2023-12-20T07:57:51;14.98;;;5.03;;
19842;SDS011;10082;51.038;6.992;2023-12-20T08:00:18;9.80;;;5.30;;
19842;SDS011;10082;51.038;6.992;2023-12-20T08:02:45;11.65;;;4.53;;
19842;SDS011;10082;51.038;6.992;2023-12-20T08:05:14;11.38;;;4.60;;
19842;SDS011;10082;51.038;6.992;2023-12-20T08:07:41;9.32;;;3.50;;
19842;SDS011;10082;51.038;6.992;2023-12-20T08:10:08;10.35;;;3.97;;
19842;SDS011;10082;51.038;6.992;2023-12-20T08:12:35;8.90;;;4.05;;
19842;SDS011;10082;51.038;6.992;2023-12-20T08:15:02;10.02;;;3.80;;
19842;SDS011;10082;51.038;6.992;2023-12-20T08:17:29;10.65;;;4.38;;
19842;SDS011;10082;51.038;6.992;2023-12-20T08:19:56;9.82;;;4.20;;
19842;SDS011;10082;51.038;6.992;2023-12-20T08:22:24;10.27;;;4.78;;
19842;SDS011;10082;51.038;6.992;2023-12-20T08:24:51;10.02;;;3.78;;
19842;SDS011;10082;51.038;6.992;2023-12-20T08:27:18;10.95;;;3.67;;
19842;SDS011;10082;51.038;6.992;2023-12-20T08:29:45;10.98;;;4.03;;
19842;SDS011;10082;51.038;6.992;2023-12-20T08:32:12;9.85;;;3.92;;
19842;SDS011;10082;51.038;6.992;2023-12-20T08:34:39;8.68;;;3.80;;
19842;SDS011;10082;51.038;6.992;2023-12-20T08:37:06;7.82;;;3.80;;
19842;SDS011;10082;51.038;6.992;2023-12-20T08:39:35;10.63;;;3.83;;
19842;SDS011;10082;51.038;6.992;2023-12-20T08:42:02;8.75;;;3.28;;
19842;SDS011;10082;51.038;6.992;2023-12-20T08:44:29;6.70;;;3.67;;
19842;SDS011;10082;51.038;6.992;2023-12-20T08:46:56;12.10;;;3.90;;
19842;SDS011;10082;51.038;6.992;2023-12-20T08:49:23;8.65;;;3.58;;
19842;SDS011;10082;51.038;6.992;2023-12-20T08:51:50;7.57;;;3.58;;
19842;SDS011;10082;51.038;6.992;2023-12-20T08:54:17;8.35;;;3.83;;
19842;SDS011;10082;51.038;6.992;2023-12-20T08:56:46;8.30;;;3.60;;
19842;SDS011;10082;51.038;6.992;2023-12-20T08:59:13;10.48;;;3.80;;
19842;SDS011;10082;51.038;6.992;2023-12-20T09:01:40;9.65;;;3.75;;
19842;SDS011;10082;51.038;6.992;2023-12-20T09:04:06;9.88;;;3.65;;
19842;SDS011;10082;51.038;6.992;2023-12-20T09:06:33;10.95;;;3.85;;
19842;SDS011;10082;51.038;6.992;2023-12-20T09:09:00;11.13;;;3.70;;
19842;SDS011;10082;51.038;6.992;2023-12-20T09:11:27;13.32;;;3.50;;
19842;SDS011;10082;51.038;6.992;2023-12-20T09:13:56;12.27;;;3.38;;
19842;SDS011;10082;51.038;6.992;2023-12-20T09:16:22;11.02;;;3.50;;
19842;SDS011;10082;51.038;6.992;2023-12-20T09:18:53;7.80;;;3.42;;
19842;SDS011;10082;51.038;6.992;2023-12-20T09:21:20;13.75;;;4.10;;
19842;SDS011;10082;51.038;6.992;2023-12-20T09:23:47;8.43;;;3.42;;
19842;SDS011;10082;51.038;6.992;2023-12-20T09:26:14;14.18;;;4.18;;
19842;SDS011;10082;51.038;6.992;2023-12-20T09:28:41;9.00;;;3.38;;
19842;SDS011;10082;51.038;6.992;2023-12-20T09:31:09;6.88;;;3.13;;
19842;SDS011;10082;51.038;6.992;2023-12-20T09:33:36;9.43;;;3.25;;
19842;SDS011;10082;51.038;6.992;2023-12-20T09:36:03;10.75;;;3.15;;
19842;SDS011;10082;51.038;6.992;2023-12-20T09:38:31;8.32;;;3.05;;
19842;SDS011;10082;51.038;6.992;2023-12-20T09:41:00;8.63;;;2.92;;
19842;SDS011;10082;51.038;6.992;2023-12-20T09:43:29;9.02;;;2.92;;
19842;SDS011;10082;51.038;6.992;2023-12-20T09:45:58;8.60;;;2.97;;
19842;SDS011;10082;51.038;6.992;2023-12-20T09:48:28;13.32;;;3.63;;
19842;SDS011;10082;51.038;6.992;2023-12-20T09:50:57;7.95;;;3.28;;
19842;SDS011;10082;51.038;6.992;2023-12-20T09:53:24;8.75;;;3.10;;
19842;SDS011;10082;51.038;6.992;2023-12-20T09:55:55;8.93;;;3.30;;
19842;SDS011;10082;51.038;6.992;2023-12-20T09:58:24;6.00;;;3.08;;
19842;SDS011;10082;51.038;6.992;2023-12-20T10:00:51;10.60;;;3.70;;
19842;SDS011;10082;51.038;6.992;2023-12-20T10:03:21;12.20;;;3.75;;
19842;SDS011;10082;51.038;6.992;2023-12-20T10:05:54;8.45;;;2.95;;
19842;SDS011;10082;51.038;6.992;2023-12-20T10:08:24;11.10;;;3.65;;
19842;SDS011;10082;51.038;6.992;2023-12-20T10:10:51;9.18;;;3.00;;
19842;SDS011;10082;51.038;6.992;2023-12-20T10:13:18;7.35;;;2.97;;
19842;SDS011;10082;51.038;6.992;2023-12-20T10:15:47;7.88;;;3.03;;
19842;SDS011;10082;51.038;6.992;2023-12-20T10:18:16;8.52;;;2.80;;
19842;SDS011;10082;51.038;6.992;2023-12-20T10:20:43;7.50;;;2.67;;
19842;SDS011;10082;51.038;6.992;2023-12-20T10:23:12;7.18;;;2.97;;
19842;SDS011;10082;51.038;6.992;2023-12-20T10:25:42;10.57;;;3.05;;
19842;SDS011;10082;51.038;6.992;2023-12-20T10:28:10;6.53;;;2.63;;
19842;SDS011;10082;51.038;6.992;2023-12-20T10:30:38;8.88;;;3.22;;
19842;SDS011;10082;51.038;6.992;2023-12-20T10:33:05;13.07;;;3.38;;
19842;SDS011;10082;51.038;6.992;2023-12-20T10:35:33;7.25;;;3.28;;
19842;SDS011;10082;51.038;6.992;2023-12-20T10:38:02;11.25;;;3.30;;
19842;SDS011;10082;51.038;6.992;2023-12-20T10:40:32;6.65;;;2.50;;
19842;SDS011;10082;51.038;6.992;2023-12-20T10:43:02;9.52;;;2.90;;
19842;SDS011;10082;51.038;6.992;2023-12-20T10:45:30;6.97;;;2.50;;
19842;SDS011;10082;51.038;6.992;2023-12-20T10:47:57;10.77;;;3.53;;
19842;SDS011;10082;51.038;6.992;2023-12-20T10:52:59;8.25;;;2.70;;
19842;SDS011;10082;51.038;6.992;2023-12-20T10:55:26;8.52;;;3.00;;
19842;SDS011;10082;51.038;6.992;2023-12-20T10:57:57;10.57;;;3.47;;
19842;SDS011;10082;51.038;6.992;2023-12-20T11:00:28;10.48;;;3.92;;
19842;SDS011;10082;51.038;6.992;2023-12-20T11:02:56;10.02;;;3.25;;
19842;SDS011;10082;51.038;6.992;2023-12-20T11:05:31;9.63;;;3.22;;
19842;SDS011;10082;51.038;6.992;2023-12-20T11:08:06;12.10;;;3.13;;
19842;SDS011;10082;51.038;6.992;2023-12-20T11:10:38;6.93;;;2.83;;
19842;SDS011;10082;51.038;6.992;2023-12-20T11:13:17;7.25;;;2.70;;
19842;SDS011;10082;51.038;6.992;2023-12-20T11:15:48;10.35;;;3.13;;
19842;SDS011;10082;51.038;6.992;2023-12-20T11:18:16;7.60;;;2.53;;
19842;SDS011;10082;51.038;6.992;2023-12-20T11:20:43;7.07;;;2.83;;
19842;SDS011;10082;51.038;6.992;2023-12-20T11:23:10;6.28;;;2.72;;
19842;SDS011;10082;51.038;6.992;2023-12-20T11:25:47;9.57;;;2.83;;
19842;SDS011;10082;51.038;6.992;2023-12-20T11:28:15;11.15;;;3.45;;
19842;SDS011;10082;51.038;6.992;2023-12-20T11:30:47;10.93;;;3.80;;
19842;SDS011;10082;51.038;6.992;2023-12-20T11:33:14;7.97;;;3.08;;
19842;SDS011;10082;51.038;6.992;2023-12-20T11:35:42;6.57;;;2.92;;
19842;SDS011;10082;51.038;6.992;2023-12-20T11:38:12;8.18;;;2.38;;
19842;SDS011;10082;51.038;6.992;2023-12-20T11:40:40;7.82;;;2.65;;
19842;SDS011;10082;51.038;6.992;2023-12-20T11:43:08;9.25;;;2.58;;
19842;SDS011;10082;51.038;6.992;2023-12-20T11:45:36;7.32;;;2.72;;
19842;SDS011;10082;51.038;6.992;2023-12-20T11:48:04;9.25;;;2.72;;
19842;SDS011;10082;51.038;6.992;2023-12-20T11:50:33;9.18;;;2.92;;
19842;SDS011;10082;51.038;6.992;2023-12-20T11:53:00;7.70;;;2.72;;
19842;SDS011;10082;51.038;6.992;2023-12-20T11:55:27;6.85;;;2.88;;
19842;SDS011;10082;51.038;6.992;2023-12-20T11:57:55;6.88;;;2.80;;
19842;SDS011;10082;51.038;6.992;2023-12-20T12:00:23;8.90;;;3.35;;
19842;SDS011;10082;51.038;6.992;2023-12-20T12:02:56;10.20;;;2.92;;
19842;SDS011;10082;51.038;6.992;2023-12-20T12:05:24;7.47;;;2.90;;
19842;SDS011;10082;51.038;6.992;2023-12-20T12:07:51;8.82;;;3.63;;
19842;SDS011;10082;51.038;6.992;2023-12-20T12:10:18;7.57;;;2.38;;
19842;SDS011;10082;51.038;6.992;2023-12-20T12:12:45;7.95;;;2.95;;
19842;SDS011;10082;51.038;6.992;2023-12-20T12:15:13;10.77;;;3.38;;
19842;SDS011;10082;51.038;6.992;2023-12-20T12:17:41;9.82;;;3.25;;
19842;SDS011;10082;51.038;6.992;2023-12-20T12:20:11;7.68;;;2.83;;
19842;SDS011;10082;51.038;6.992;2023-12-20T12:22:38;9.60;;;3.15;;
19842;SDS011;10082;51.038;6.992;2023-12-20T12:25:12;10.45;;;3.92;;
19842;SDS011;10082;51.038;6.992;2023-12-20T12:27:40;8.27;;;2.97;;
19842;SDS011;10082;51.038;6.992;2023-12-20T12:30:08;7.25;;;2.88;;
19842;SDS011;10082;51.038;6.992;2023-12-20T12:32:38;8.80;;;3.97;;
19842;SDS011;10082;51.038;6.992;2023-12-20T12:35:05;8.23;;;3.08;;
19842;SDS011;10082;51.038;6.992;2023-12-20T12:37:37;9.18;;;3.60;;
19842;SDS011;10082;51.038;6.992;2023-12-20T12:40:05;7.82;;;3.70;;
19842;SDS011;10082;51.038;6.992;2023-12-20T12:42:33;8.85;;;3.45;;
19842;SDS011;10082;51.038;6.992;2023-12-20T12:45:00;8.13;;;3.17;;
19842;SDS011;10082;51.038;6.992;2023-12-20T12:47:27;12.48;;;3.15;;
19842;SDS011;10082;51.038;6.992;2023-12-20T12:49:54;10.95;;;3.63;;
19842;SDS011;10082;51.038;6.992;2023-12-20T12:52:22;8.05;;;3.50;;
19842;SDS011;10082;51.038;6.992;2023-12-20T12:54:51;12.98;;;4.05;;
19842;SDS011;10082;51.038;6.992;2023-12-20T12:57:19;8.80;;;3.33;;
19842;SDS011;10082;51.038;6.992;2023-12-20T12:59:46;10.82;;;3.65;;
19842;SDS011;10082;51.038;6.992;2023-12-20T13:02:13;9.60;;;3.80;;
19842;SDS011;10082;51.038;6.992;2023-12-20T13:04:41;7.65;;;3.67;;
19842;SDS011;10082;51.038;6.992;2023-12-20T13:07:09;7.70;;;3.63;;
19842;SDS011;10082;51.038;6.992;2023-12-20T13:09:39;8.77;;;3.85;;
19842;SDS011;10082;51.038;6.992;2023-12-20T13:12:09;12.98;;;4.03;;
19842;SDS011;10082;51.038;6.992;2023-12-20T13:14:37;6.15;;;3.63;;
19842;SDS011;10082;51.038;6.992;2023-12-20T13:17:04;10.75;;;4.35;;
19842;SDS011;10082;51.038;6.992;2023-12-20T13:19:31;9.77;;;4.45;;
19842;SDS011;10082;51.038;6.992;2023-12-20T13:21:58;10.18;;;4.05;;
19842;SDS011;10082;51.038;6.992;2023-12-20T13:24:25;10.50;;;3.85;;
19842;SDS011;10082;51.038;6.992;2023-12-20T13:26:52;10.32;;;3.72;;
19842;SDS011;10082;51.038;6.992;2023-12-20T13:29:21;8.10;;;3.40;;
19842;SDS011;10082;51.038;6.992;2023-12-20T13:31:48;7.82;;;3.45;;
19842;SDS011;10082;51.038;6.992;2023-12-20T13:34:15;7.68;;;3.63;;
19842;SDS011;10082;51.038;6.992;2023-12-20T13:36:43;7.85;;;3.97;;
19842;SDS011;10082;51.038;6.992;2023-12-20T13:39:12;9.45;;;3.97;;
19842;SDS011;10082;51.038;6.992;2023-12-20T13:41:39;9.43;;;3.90;;
19842;SDS011;10082;51.038;6.992;2023-12-20T13:44:07;7.00;;;3.58;;
19842;SDS011;10082;51.038;6.992;2023-12-20T13:46:35;8.98;;;3.40;;
19842;SDS011;10082;51.038;6.992;2023-12-20T13:49:02;9.32;;;3.63;;
19842;SDS011;10082;51.038;6.992;2023-12-20T13:51:30;7.63;;;3.60;;
19842;SDS011;10082;51.038;6.992;2023-12-20T13:53:57;6.80;;;3.40;;
19842;SDS011;10082;51.038;6.992;2023-12-20T13:56:24;9.35;;;3.70;;
19842;SDS011;10082;51.038;6.992;2023-12-20T13:58:51;7.57;;;3.28;;
19842;SDS011;10082;51.038;6.992;2023-12-20T14:01:18;8.85;;;3.65;;
19842;SDS011;10082;51.038;6.992;2023-12-20T14:03:46;9.38;;;3.30;;
19842;SDS011;10082;51.038;6.992;2023-12-20T14:06:14;6.65;;;2.97;;
19842;SDS011;10082;51.038;6.992;2023-12-20T14:08:41;6.30;;;3.40;;
19842;SDS011;10082;51.038;6.992;2023-12-20T14:11:09;7.80;;;3.45;;
19842;SDS011;10082;51.038;6.992;2023-12-20T14:13:35;7.43;;;2.90;;
19842;SDS011;10082;51.038;6.992;2023-12-20T14:16:03;5.78;;;2.90;;
19842;SDS011;10082;51.038;6.992;2023-12-20T14:18:36;6.38;;;2.80;;
19842;SDS011;10082;51.038;6.992;2023-12-20T14:21:07;7.28;;;3.25;;
19842;SDS011;10082;51.038;6.992;2023-12-20T14:23:33;8.77;;;3.17;;
19842;SDS011;10082;51.038;6.992;2023-12-20T14:26:00;8.13;;;3.75;;
19842;SDS011;10082;51.038;6.992;2023-12-20T14:28:28;7.07;;;2.90;;
19842;SDS011;10082;51.038;6.992;2023-12-20T14:30:55;7.35;;;3.50;;
19842;SDS011;10082;51.038;6.992;2023-12-20T14:33:23;8.50;;;3.55;;
19842;SDS011;10082;51.038;6.992;2023-12-20T14:35:51;6.63;;;2.97;;
19842;SDS011;10082;51.038;6.992;2023-12-20T14:38:19;7.68;;;3.00;;
19842;SDS011;10082;51.038;6.992;2023-12-20T14:40:46;7.75;;;3.30;;
19842;SDS011;10082;51.038;6.992;2023-12-20T14:43:13;10.57;;;3.33;;
19842;SDS011;10082;51.038;6.992;2023-12-20T14:45:41;8.60;;;3.03;;
19842;SDS011;10082;51.038;6.992;2023-12-20T14:48:09;6.03;;;2.90;;
19842;SDS011;10082;51.038;6.992;2023-12-20T14:50:37;6.65;;;3.15;;
19842;SDS011;10082;51.038;6.992;2023-12-20T14:53:06;7.18;;;2.95;;
19842;SDS011;10082;51.038;6.992;2023-12-20T14:55:35;10.25;;;3.10;;